Flight Track Log - Related Links

Times and Time Zones

All times are in EDT time to prevent confusion due to time zone crossing. See the SWA1362 flight status page for this flight to view local times or setup timezone preferences in your user account.

Time Position Orientation Groundspeed Altitude Reporting Facility
EDT Latitude Longitude Course Direction KTS MPH feet Rate Location/Type
Sat 05:41:26 PM 33.4333 -112.1000 269° West 227 261 3,900  Level Phoenix TRACON
Sat 05:42:14 PM 33.4358 -112.1519 273° West 238 274 5,300 2,917 Climbing Albuquerque Center
Sat 05:43:15 PM 33.5008 -112.1892 334° Northwest 276 318 9,200 2,780 Climbing Albuquerque Center
Sat 05:44:17 PM 33.5511 -112.1253 47° Northeast 309 356 11,000 2,000 Climbing Albuquerque Center
Sat 05:45:18 PM 33.5697 -112.0089 79° East 357 411 13,300 2,146 Climbing Albuquerque Center
Sat 05:46:20 PM 33.5914 -111.8847 78° East 381 438 15,400 2,177 Climbing Albuquerque Center
Sat 05:47:22 PM 33.6108 -111.7544 80° East 400 460 17,800 2,098 Climbing Albuquerque Center
Sat 05:48:23 PM 33.6333 -111.6208 79° East 412 474 19,700 2,000 Climbing Albuquerque Center
Sat 05:49:25 PM 33.6589 -111.4514 80° East 434 499 21,900 1,854 Climbing Albuquerque Center
Sat 05:50:26 PM 33.6828 -111.3047 79° East 450 518 23,500 1,561 Climbing Albuquerque Center
Sat 05:51:28 PM 33.7253 -111.1619 70° East 457 526 25,100 1,355 Climbing Albuquerque Center
Sat 05:52:30 PM 33.7769 -111.0197 66° East 465 535 26,300 1,220 Climbing Albuquerque Center
Sat 05:53:31 PM 33.8292 -110.8708 67° East 480 552 27,600 1,220 Climbing Albuquerque Center
Sat 05:54:33 PM 33.8819 -110.7225 67° East 484 557 28,800 1,171 Climbing Albuquerque Center
Sat 05:55:34 PM 33.9464 -110.5375 67° East 496 571 30,000 1,220 Climbing Albuquerque Center
Sat 05:56:36 PM 34.0086 -110.3786 65° Northeast 505 581 31,300 1,317 Climbing Albuquerque Center
Sat 05:57:37 PM 34.0764 -110.2344 60° Northeast 502 578 32,700 1,220 Climbing Albuquerque Center
Sat 05:58:39 PM 34.1408 -110.0886 62° Northeast 498 573 33,800 927 Climbing Albuquerque Center
Sat 05:59:40 PM 34.2050 -109.9492 61° Northeast 497 572 34,600 585 Climbing Albuquerque Center
Sat 06:00:42 PM 34.2783 -109.7839 62° Northeast 499 574 35,000 195 Climbing Albuquerque Center
Sat 06:01:43 PM 34.3417 -109.6442 61° Northeast 498 573 35,000  Level Albuquerque Center
Sat 06:02:45 PM 34.4139 -109.4789 62° Northeast 498 573 35,000  Level Albuquerque Center
Sat 06:03:46 PM 34.4761 -109.3400 61° Northeast 494 568 35,000  Level Albuquerque Center
Sat 06:04:48 PM 34.5497 -109.1756 61° Northeast 495 570 35,000  Level Albuquerque Center
Sat 06:05:50 PM 34.6125 -109.0322 62° Northeast 499 574 35,000  Level Albuquerque Center
Sat 06:06:51 PM 34.6758 -108.8914 61° Northeast 498 573 35,000  Level Albuquerque Center
Sat 06:07:53 PM 34.7669 -108.7508 52° Northeast 477 549 35,000  Level Albuquerque Center
Sat 06:08:54 PM 34.8436 -108.6264 53° Northeast 478 550 35,000  Level Albuquerque Center
Sat 06:09:56 PM 34.9331 -108.4803 53° Northeast 481 554 35,000  Level Albuquerque Center
Sat 06:10:57 PM 35.0111 -108.3600 52° Northeast 477 549 35,000  Level Albuquerque Center
Sat 06:11:59 PM 35.1022 -108.2211 51° Northeast 472 543 35,000  Level Albuquerque Center
Sat 06:13:00 PM 35.1828 -108.1039 50° Northeast 472 543 35,000  Level Albuquerque Center
Sat 06:14:02 PM 35.2458 -107.9667 61° Northeast 488 562 35,000  Level Albuquerque Center
Sat 06:15:04 PM 35.3142 -107.8019 63° Northeast 486 559 35,000  Level Albuquerque Center
Sat 06:16:05 PM 35.3703 -107.6625 64° Northeast 481 554 35,000  Level Albuquerque Center
Sat 06:17:07 PM 35.4364 -107.5000 63° Northeast 479 551 35,000  Level Albuquerque Center
Sat 06:18:08 PM 35.4944 -107.3581 63° Northeast 482 555 35,000  Level Albuquerque Center
Sat 06:19:10 PM 35.5622 -107.1936 63° Northeast 484 557 35,000  Level Albuquerque Center
Sat 06:20:12 PM 35.6222 -107.0464 63° Northeast 490 564 35,000  Level Albuquerque Center
Sat 06:21:13 PM 35.6794 -106.9061 63° Northeast 491 565 35,000  Level Albuquerque Center
Sat 06:22:15 PM 35.7475 -106.7367 64° Northeast 495 570 35,000  Level Albuquerque Center
Sat 06:23:16 PM 35.8058 -106.5925 63° Northeast 493 567 35,000  Level Albuquerque Center
Sat 06:24:18 PM 35.8731 -106.4239 64° Northeast 491 565 35,000  Level Albuquerque Center
Sat 06:25:19 PM 35.9267 -106.2886 64° Northeast 490 564 35,000  Level Albuquerque Center
Sat 06:26:21 PM 35.9861 -106.1358 64° Northeast 492 566 35,000  Level Albuquerque Center
Sat 06:27:22 PM 36.0447 -105.9833 65° Northeast 492 566 35,000  Level Albuquerque Center
Sat 06:28:24 PM 36.1161 -105.8019 64° Northeast 489 563 35,000  Level Albuquerque Center
Sat 06:29:25 PM 36.1747 -105.6500 64° Northeast 488 562 35,000  Level Albuquerque Center
Sat 06:30:27 PM 36.2367 -105.4906 64° Northeast 492 566 35,000  Level Albuquerque Center
Sat 06:31:28 PM 36.2956 -105.3375 64° Northeast 490 564 35,000  Level Albuquerque Center
Sat 06:32:30 PM 36.3533 -105.1831 65° Northeast 488 562 35,000  Level Albuquerque Center
Sat 06:33:31 PM 36.4119 -105.0292 65° Northeast 489 563 35,000  Level Albuquerque Center
Sat 06:34:33 PM 36.4697 -104.8767 65° Northeast 485 558 35,000  Level Albuquerque Center
Sat 06:35:34 PM 36.5286 -104.7225 65° Northeast 488 562 35,000  Level Albuquerque Center
Sat 06:36:36 PM 36.5853 -104.5683 65° Northeast 486 559 35,000  Level Albuquerque Center
Sat 06:37:37 PM 36.6442 -104.4133 65° Northeast 488 562 35,000  Level Albuquerque Center
Sat 06:38:38 PM 36.7064 -104.2475 65° Northeast 487 560 35,000  Level Albuquerque Center
Sat 06:39:40 PM 36.7611 -104.1025 65° Northeast 485 558 35,000  Level Albuquerque Center
Sat 06:40:41 PM 36.8236 -103.9325 65° Northeast 486 559 35,000  Level Albuquerque Center
Sat 06:41:43 PM 36.8764 -103.7892 65° Northeast 479 551 35,000  Level Albuquerque Center
Sat 06:42:44 PM 36.9386 -103.6186 65° Northeast 483 556 35,000  Level Albuquerque Center
Sat 06:43:45 PM 36.9914 -103.4728 66° East 485 558 35,000  Level Albuquerque Center
Sat 06:44:47 PM 37.0447 -103.3261 65° Northeast 486 559 35,000  Level Albuquerque Center
Sat 06:45:48 PM 37.1069 -103.1525 66° East 489 563 35,000  Level Albuquerque Center
Sat 06:46:50 PM 37.1592 -103.0044 66° East 488 562 35,000  Level Albuquerque Center
Sat 06:47:51 PM 37.2225 -102.8328 65° Northeast 488 562 35,000  Level Albuquerque Center
Sat 06:48:52 PM 37.2744 -102.6864 66° East 482 555 35,000  Level Albuquerque Center
Sat 06:49:54 PM 37.3258 -102.5400 66° East 481 554 35,000  Level Albuquerque Center
Sat 06:50:55 PM 37.3861 -102.3675 66° East 482 555 35,000  Level Albuquerque Center
Sat 06:51:56 PM 37.4397 -102.2100 67° East 482 555 35,000  Level Albuquerque Center
Sat 06:52:58 PM 37.4911 -102.0603 67° East 485 558 35,000  Level Albuquerque Center
Sat 06:54:26 PM 37.5667 -101.8353 67° East 485 558 35,000  Level Kansas City Center
Sat 06:55:27 PM 37.6258 -101.6614 67° East 484 557 35,000  Level Kansas City Center
Sat 06:56:30 PM 37.6772 -101.5119 66° East 484 557 35,000  Level Kansas City Center
Sat 06:57:31 PM 37.7278 -101.3619 67° East 485 558 35,000  Level Kansas City Center
Sat 06:58:31 PM 37.7864 -101.1864 67° East 483 556 35,000  Level Kansas City Center
Sat 06:59:34 PM 37.8367 -101.0356 67° East 482 555 35,000  Level Kansas City Center
Sat 07:00:34 PM 37.8869 -100.8842 67° East 481 554 35,000 390 Level Kansas City Center
Sat 07:01:37 PM 37.9458 -100.7058 67° East 485 558 35,800 720 Climbing Kansas City Center
Sat 07:02:39 PM 37.9964 -100.5522 67° East 488 562 36,500 590 Climbing Kansas City Center
Sat 07:03:39 PM 38.0536 -100.3753 68° East 486 559 37,000 246 Climbing Kansas City Center
Sat 07:04:41 PM 38.1028 -100.2236 68° East 485 558 37,000  Level Kansas City Center
Sat 07:05:42 PM 38.1514 -100.0711 68° East 485 558 37,000  Level Kansas City Center
Sat 07:06:45 PM 38.2072 -99.8939 68° East 484 557 37,000  Level Kansas City Center
Sat 07:07:47 PM 38.2567 -99.7442 67° East 481 554 37,000  Level Kansas City Center
Sat 07:08:47 PM 38.3131 -99.5664 68° East 484 557 37,000  Level Kansas City Center
Sat 07:09:48 PM 38.3561 -99.4261 69° East 485 558 37,000  Level Kansas City Center
Sat 07:10:51 PM 38.4081 -99.2653 68° East 488 562 37,000  Level Kansas City Center
Sat 07:11:53 PM 38.4678 -99.0728 68° East 488 562 37,000  Level Kansas City Center
Sat 07:12:53 PM 38.5192 -98.9094 68° East 491 565 37,000  Level Kansas City Center
Sat 07:13:54 PM 38.5719 -98.7431 68° East 501 577 37,000  Level Kansas City Center
Sat 07:14:58 PM 38.6211 -98.5789 69° East 495 570 37,000  Level Kansas City Center
Sat 07:15:58 PM 38.6722 -98.4142 68° East 495 570 37,000  Level Kansas City Center
Sat 07:16:59 PM 38.7217 -98.2500 69° East 494 568 37,000  Level Kansas City Center
Sat 07:18:02 PM 38.7717 -98.0850 69° East 494 568 37,000  Level Kansas City Center
Sat 07:19:03 PM 38.8208 -97.9194 69° East 495 570 37,000  Level Kansas City Center
Sat 07:20:03 PM 38.8756 -97.7411 68° East 490 564 37,000  Level Kansas City Center
Sat 07:21:07 PM 38.9214 -97.5847 69° East 491 565 37,000  Level Kansas City Center
Sat 07:22:09 PM 38.9775 -97.3936 69° East 492 566 37,000  Level Kansas City Center
Sat 07:23:09 PM 39.0214 -97.2428 69° East 493 567 37,000  Level Kansas City Center
Sat 07:24:09 PM 39.0756 -97.0608 69° East 489 563 37,000  Level Kansas City Center
Sat 07:25:13 PM 39.1200 -96.9025 70° East 491 565 37,000  Level Kansas City Center
Sat 07:26:13 PM 39.1731 -96.7192 69° East 490 564 37,000  Level Kansas City Center
Sat 07:27:16 PM 39.2181 -96.5597 70° East 492 566 37,000  Level Kansas City Center
Sat 07:28:17 PM 39.2614 -96.4022 70° East 494 568 37,000  Level Kansas City Center
Sat 07:29:18 PM 39.3103 -96.2367 69° East 493 567 37,000  Level Kansas City Center
Sat 07:30:19 PM 39.3592 -96.0528 71° East 494 568 37,000  Level Kansas City Center
Sat 07:31:20 PM 39.4108 -95.8658 70° East 494 568 37,000  Level Kansas City Center
Sat 07:32:24 PM 39.4547 -95.7053 70° East 493 567 37,000  Level Kansas City Center
Sat 07:33:25 PM 39.4983 -95.5444 71° East 492 566 37,000  Level Kansas City Center
Sat 07:34:25 PM 39.5500 -95.3569 70° East 491 565 37,000  Level Kansas City Center
Sat 07:35:27 PM 39.5933 -95.1956 71° East 490 564 37,000  Level Kansas City Center
Sat 07:36:28 PM 39.6369 -95.0336 71° East 494 568 37,000  Level Kansas City Center
Sat 07:37:29 PM 39.6869 -94.8442 71° East 494 568 37,000  Level Kansas City Center
Sat 07:38:30 PM 39.7303 -94.6836 71° East 491 565 37,000  Level Kansas City Center
Sat 07:39:34 PM 39.7728 -94.5211 71° East 494 568 37,000  Level Kansas City Center
Sat 07:40:34 PM 39.8222 -94.3331 71° East 492 566 37,000  Level Kansas City Center
Sat 07:41:34 PM 39.8636 -94.1697 72° East 495 570 37,000  Level Kansas City Center
Sat 07:42:35 PM 39.9042 -94.0044 72° East 504 580 37,000  Level Kansas City Center
Sat 07:43:39 PM 39.9550 -93.8017 72° East 496 571 37,000  Level Kansas City Center
Sat 07:44:38 PM 39.9975 -93.6333 72° East 494 568 37,000  Level Kansas City Center
Sat 07:45:41 PM 40.0394 -93.4658 72° East 490 564 37,000  Level Kansas City Center
Sat 07:46:43 PM 40.0814 -93.2981 72° East 491 565 37,000  Level Kansas City Center
Sat 07:47:44 PM 40.1250 -93.1303 71° East 492 566 37,000  Level Kansas City Center
Sat 07:48:45 PM 40.1708 -92.9489 72° East 490 564 37,000  Level Kansas City Center
Sat 07:49:45 PM 40.2100 -92.7869 72° East 488 562 37,000  Level Kansas City Center
Sat 07:50:50 PM 40.2553 -92.5989 72° East 486 559 37,000  Level Kansas City Center
Sat 07:51:50 PM 40.2969 -92.4400 71° East 484 557 37,000  Level Kansas City Center
Sat 07:52:51 PM 40.3347 -92.2731 73° East 490 564 37,000  Level Kansas City Center
Sat 07:53:52 PM 40.3747 -92.1058 73° East 490 564 37,000  Level Kansas City Center
Sat 07:54:54 PM 40.4211 -91.9058 73° East 484 557 37,000  Level Kansas City Center
Sat 07:55:53 PM 40.4603 -91.7381 73° East 483 556 37,000  Level Kansas City Center
Sat 07:56:49 PM 40.4925 -91.6042 72° East 486 559 37,000  Level Chicago Center
Sat 07:57:51 PM 40.5406 -91.3983 73° East 492 566 37,000  Level Chicago Center
Sat 07:58:52 PM 40.5731 -91.2539 73° East 493 567 37,000  Level Chicago Center
Sat 07:59:54 PM 40.6197 -91.0461 73° East 493 567 37,000  Level Chicago Center
Sat 08:00:55 PM 40.6583 -90.8719 74° East 494 568 37,000  Level Chicago Center
Sat 08:01:56 PM 40.6975 -90.6978 73° East 495 570 37,000  Level Chicago Center
Sat 08:02:58 PM 40.7353 -90.5250 74° East 491 565 37,000  Level Chicago Center
Sat 08:03:59 PM 40.7742 -90.3522 73° East 490 564 37,000  Level Chicago Center
Sat 08:05:00 PM 40.8164 -90.1608 74° East 487 560 37,000  Level Chicago Center
Sat 08:06:02 PM 40.8519 -89.9894 75° East 485 558 37,000  Level Chicago Center
Sat 08:07:03 PM 40.8886 -89.8217 74° East 481 554 37,000  Level Chicago Center
Sat 08:08:04 PM 40.9233 -89.6531 75° East 480 552 37,000  Level Chicago Center
Sat 08:09:06 PM 40.9589 -89.4878 74° East 484 557 37,000  Level Chicago Center
Sat 08:10:07 PM 40.9956 -89.3136 74° East 483 556 37,000  Level Chicago Center
Sat 08:11:08 PM 41.0306 -89.1442 75° East 479 551 37,000  Level Chicago Center
Sat 08:12:10 PM 41.0644 -88.9744 75° East 478 550 37,000  Level Chicago Center
Sat 08:13:11 PM 41.1064 -88.7697 75° East 482 555 37,000  Level Chicago Center
Sat 08:14:12 PM 41.1414 -88.5969 75° East 488 562 37,000  Level Chicago Center
Sat 08:15:14 PM 41.1764 -88.4258 75° East 485 558 37,000  Level Chicago Center
Sat 08:16:15 PM 41.2108 -88.2556 75° East 483 556 37,000  Level Chicago Center
Sat 08:17:16 PM 41.2458 -88.0850 75° East 488 562 37,000  Level Chicago Center
Sat 08:18:17 PM 41.2844 -87.8825 76° East 488 562 37,000  Level Chicago Center
Sat 08:19:19 PM 41.3178 -87.7072 76° East 498 573 37,000  Level Chicago Center
Sat 08:20:20 PM 41.3517 -87.5306 76° East 501 577 37,000  Level Chicago Center
Sat 08:21:21 PM 41.3861 -87.3539 75° East 499 574 37,000  Level Chicago Center
Sat 08:22:22 PM 41.4197 -87.1767 76° East 497 572 37,000  Level Chicago Center
Sat 08:23:23 PM 41.4525 -86.9964 76° East 502 578 37,000  Level Chicago Center
Sat 08:24:25 PM 41.4858 -86.8164 76° East 504 580 37,000  Level Chicago Center
Sat 08:25:26 PM 41.5169 -86.6367 77° East 500 575 37,000  Level Chicago Center
Sat 08:26:27 PM 41.5494 -86.4572 76° East 501 577 37,000  Level Chicago Center
Sat 08:27:28 PM 41.5883 -86.2433 76° East 496 571 37,000  Level Chicago Center
Sat 08:28:29 PM 41.6208 -86.0642 76° East 495 570 37,000  Level Chicago Center
Sat 08:29:31 PM 41.6528 -85.8828 77° East 501 577 37,000  Level Chicago Center
Sat 08:30:32 PM 41.6847 -85.6967 77° East 509 586 37,000  Level Chicago Center
Sat 08:31:33 PM 41.7183 -85.5061 77° East 515 593 37,000  Level Chicago Center
Sat 08:32:34 PM 41.7494 -85.3122 78° East 520 598 37,000  Level Chicago Center
Sat 08:33:35 PM 41.7825 -85.1217 77° East 521 600 37,000  Level Chicago Center
Sat 08:34:33 PM 41.8147 -84.9356 77° East 523 602 37,000  Level Cleveland Center
Sat 08:35:33 PM 41.8467 -84.7481 77° East 523 602 37,000  Level Cleveland Center
Sat 08:36:33 PM 41.8786 -84.5575 77° East 523 602 37,000  Level Cleveland Center
Sat 08:37:33 PM 41.9058 -84.3694 79° East 523 602 37,000  Level Cleveland Center
Sat 08:38:33 PM 41.9297 -84.2061 79° East 518 596 37,000  Level Cleveland Center
Sat 08:39:33 PM 41.9831 -84.0303 68° East 508 585 37,000  Level Cleveland Center
Sat 08:40:33 PM 42.0425 -83.8575 65° Northeast 500 575 37,000  Level Cleveland Center
Sat 08:41:33 PM 42.1014 -83.6869 65° Northeast 500 575 37,000  Level Cleveland Center
Sat 08:42:33 PM 42.1667 -83.4994 65° Northeast 500 575 37,000  Level Cleveland Center
Sat 08:43:33 PM 42.2144 -83.3392 68° East 505 581 37,000 -150 Level Cleveland Center
Sat 08:44:33 PM 42.2439 -83.1469 78° East 505 581 36,700 -650 Descending Cleveland Center
Sat 08:45:33 PM 42.2769 -82.9658 76° East 505 581 35,700 -950 Descending Cleveland Center
Sat 08:46:33 PM 42.3081 -82.7758 77° East 505 581 34,800 -950 Descending Cleveland Center
Sat 08:47:33 PM 42.3383 -82.5917 77° East 505 581 33,800 -900 Descending Cleveland Center
Sat 08:48:33 PM 42.3686 -82.4100 77° East 505 581 33,000 -400 Descending Cleveland Center
Sat 08:49:33 PM 42.4025 -82.2253 76° East 505 581 33,000  Level Cleveland Center
Sat 08:50:33 PM 42.4386 -82.0208 76° East 505 581 33,000  Level Cleveland Center
Sat 08:51:33 PM 42.4681 -81.8358 78° East 505 581 33,000  Level Cleveland Center
Sat 08:52:33 PM 42.4989 -81.6533 77° East 505 581 33,000 -750 Level Cleveland Center
Sat 08:53:33 PM 42.5275 -81.4706 78° East 505 581 31,500 -1,950 Descending Cleveland Center
Sat 08:54:33 PM 42.5581 -81.2850 77° East 505 581 29,100 -2,300 Descending Cleveland Center
Sat 08:55:33 PM 42.5883 -81.1050 77° East 500 575 26,900 -2,000 Descending Cleveland Center
Sat 08:56:33 PM 42.6139 -80.9500 77° East 489 563 25,100 -1,450 Descending Cleveland Center
Sat 08:57:33 PM 42.6392 -80.7750 79° East 469 540 24,000 -550 Descending Cleveland Center
Sat 08:58:33 PM 42.6667 -80.6086 77° East 463 533 24,000 -50 Level Cleveland Center
Sat 08:59:33 PM 42.6914 -80.4364 79° East 463 533 23,900 -1,250 Descending Cleveland Center
Sat 09:00:33 PM 42.6975 -80.2697 87° East 448 516 21,500 -2,500 Descending Cleveland Center
Sat 09:01:33 PM 42.6947 -80.0861 91° East 443 510 18,900 -2,250 Descending Cleveland Center
Sat 09:02:33 PM 42.6958 -79.9194 89° East 437 503 17,000 -2,100 Descending Cleveland Center
Sat 09:03:33 PM 42.6950 -79.7583 90° East 432 497 14,700 -2,100 Descending Cleveland Center
Sat 09:04:33 PM 42.6936 -79.6114 91° East 419 482 12,800 -1,750 Descending Cleveland Center
Sat 09:05:33 PM 42.6944 -79.4703 89° East 392 451 11,200 -1,300 Descending Cleveland Center
Sat 09:06:33 PM 42.7372 -79.3592 62° Northeast 347 399 10,200 -900 Descending Cleveland Center
Sat 09:07:33 PM 42.7717 -79.2681 63° Northeast 310 357 9,400 -1,000 Descending Cleveland Center
Sat 09:08:33 PM 42.8058 -79.1739 64° Northeast 289 333 8,200 -1,500 Descending Cleveland Center
Sat 09:09:33 PM 42.8483 -79.0711 61° Northeast 275 316 6,400 -1,550 Descending Cleveland Center
Sat 09:10:33 PM 42.8847 -78.9767 62° Northeast 275 316 5,100 -1,200 Descending Cleveland Center
Sat 09:11:33 PM 42.9400 -78.9044 44° Northeast 270 311 4,000 -635 Descending Cleveland Center
Sat 09:12:17 PM 42.9667 -78.8500 56° Northeast 232 267 4,000 -231 Level Buffalo TRACON
Sat 09:13:17 PM 43.0167 -78.8000 36° Northeast 215 247 3,600 -550 Descending Buffalo TRACON
Sat 09:14:17 PM 43.0333 -78.7333 71° East 210 242 2,900 -650 Descending Buffalo TRACON
Sat 09:15:17 PM 43.0167 -78.6667 109° East 178 205 2,300 -550 Descending Buffalo TRACON
Sat 09:16:17 PM 42.9833 -78.6833 200° South 122 140 1,800 -700 Descending Buffalo TRACON
Sat 09:17:17 PM 42.9500 -78.7167 216° Southwest 133 153 900 -900 Descending Buffalo TRACON

Login

Don't have an account? Register now (free) for customized features, flight alerts, and more!